Time;durP1;ratioP1;P1;durP2;ratioP2;P2;SDS_P1;SDS_P2;PMS_P1;PMS_P2;Temp;Humidity;BMP_temperature;BMP_pressure;BME280_temperature;BME280_humidity;BME280_pressure;Samples;Min_cycle;Max_cycle;Signal;HPM_P1;HPM_P2
2022/08/08 00:01:39;;;;;;;11.93;10.57;;;665.70;2432.00;;;;;;6160373;23;20021;-82
2022/08/08 00:04:23;;;;;;;12.50;9.73;;;665.90;2432.00;;;;;;6184914;23;20052;-82
2022/08/08 00:07:03;;;;;;;10.63;9.52;;;665.80;2432.00;;;;;;6185152;23;20001;-83
2022/08/08 00:09:49;;;;;;;11.85;10.23;;;665.70;2432.00;;;;;;6185112;23;20051;-83
2022/08/08 00:12:23;;;;;;;13.00;10.68;;;640.90;2432.00;;;;;;6185175;23;20031;-83
2022/08/08 00:14:56;;;;;;;11.23;9.80;;;640.90;2432.00;;;;;;6185241;23;20005;-83
2022/08/08 00:17:55;;;;;;;9.57;8.68;;;640.90;2432.00;;;;;;6185084;23;20001;-83
2022/08/08 00:20:40;;;;;;;10.73;8.93;;;640.80;2432.00;;;;;;6184374;23;20020;-82
2022/08/08 00:23:17;;;;;;;10.98;9.00;;;640.90;2432.00;;;;;;6185350;23;20445;-81
2022/08/08 00:25:48;;;;;;;12.35;10.98;;;640.70;2432.00;;;;;;6184599;23;20009;-80
2022/08/08 00:28:18;;;;;;;13.45;11.70;;;640.70;2432.00;;;;;;6185095;23;20028;-79
2022/08/08 00:30:52;;;;;;;13.75;11.38;;;640.60;2432.00;;;;;;6185149;23;20001;-81
2022/08/08 00:33:27;;;;;;;11.35;10.15;;;640.60;2432.00;;;;;;6184805;23;20005;-80
2022/08/08 00:36:02;;;;;;;10.52;9.43;;;640.70;2432.00;;;;;;6185082;23;20009;-81
2022/08/08 00:39:09;;;;;;;11.93;9.88;;;640.70;2432.00;;;;;;6185184;23;20008;-82
2022/08/08 00:42:09;;;;;;;13.68;10.13;;;640.60;2432.00;;;;;;6099567;23;20121;-81
2022/08/08 00:44:46;;;;;;;13.13;9.95;;;640.70;2432.00;;;;;;6185141;23;20006;-82
2022/08/08 00:47:38;;;;;;;11.00;9.80;;;640.70;2432.00;;;;;;6185087;23;20009;-81
2022/08/08 00:50:13;;;;;;;12.77;10.45;;;640.70;2432.00;;;;;;6185402;23;20012;-82
2022/08/08 00:52:57;;;;;;;10.93;9.73;;;640.70;2432.00;;;;;;6185098;23;20033;-83
2022/08/08 00:55:55;;;;;;;11.45;10.27;;;640.70;2432.00;;;;;;6184709;23;20009;-83
2022/08/08 00:58:39;;;;;;;12.55;10.65;;;640.60;2432.00;;;;;;6185030;23;20001;-82
2022/08/08 01:01:17;;;;;;;11.57;10.07;;;640.50;2432.00;;;;;;6186823;23;20035;-82
2022/08/08 01:04:17;;;;;;;12.18;10.95;;;640.60;2432.00;;;;;;6184987;23;20052;-82
2022/08/08 01:06:48;;;;;;;15.27;10.48;;;640.30;2432.00;;;;;;6186988;23;20013;-82
2022/08/08 01:09:49;;;;;;;11.77;10.50;;;640.30;2432.00;;;;;;6186949;23;20028;-81
2022/08/08 01:12:52;;;;;;;11.90;10.65;;;640.50;2432.00;;;;;;6186853;23;20423;-83
2022/08/08 01:15:31;;;;;;;14.95;11.50;;;640.30;2432.00;;;;;;6186592;23;20092;-82
2022/08/08 01:18:53;;;;;;;12.88;9.93;;;640.00;2432.00;;;;;;6186905;23;20005;-83
2022/08/08 01:21:30;;;;;;;11.27;10.03;;;615.30;2432.00;;;;;;6101675;23;20014;-82
2022/08/08 01:24:15;;;;;;;13.43;11.77;;;640.00;2432.00;;;;;;6101440;23;20228;-83
2022/08/08 01:27:11;;;;;;;12.18;10.90;;;615.10;2432.00;;;;;;6156876;23;20016;-82
2022/08/08 01:29:43;;;;;;;15.13;11.55;;;615.10;2432.00;;;;;;6186556;23;20001;-81
2022/08/08 01:32:40;;;;;;;17.00;11.23;;;615.00;2432.00;;;;;;6186908;23;20319;-83
2022/08/08 01:35:24;;;;;;;13.45;12.05;;;615.00;2432.00;;;;;;6186781;23;20338;-82
2022/08/08 01:38:27;;;;;;;14.45;10.90;;;614.90;2432.00;;;;;;6186539;23;20001;-82
2022/08/08 01:40:55;;;;;;;;;;;615.10;2432.00;;;;;;6187062;23;19997;-82
2022/08/08 01:43:59;;;;;;;13.75;10.95;;;615.10;2432.00;;;;;;6186711;23;19900;-82
2022/08/08 01:46:40;;;;;;;19.00;11.95;;;615.20;2432.00;;;;;;6186695;23;20059;-82
2022/08/08 01:49:28;;;;;;;17.83;11.43;;;615.30;2432.00;;;;;;6186765;23;20327;-83
2022/08/08 01:52:35;;;;;;;14.90;11.85;;;615.20;2432.00;;;;;;6186384;23;20101;-80
2022/08/08 01:55:37;;;;;;;12.75;11.45;;;614.90;2432.00;;;;;;6072823;23;20002;-83
2022/08/08 01:58:25;;;;;;;14.82;11.45;;;614.80;2432.00;;;;;;6186553;23;20001;-81
2022/08/08 02:01:00;;;;;;;15.43;11.05;;;615.00;2432.00;;;;;;6186635;23;20029;-81
2022/08/08 02:03:51;;;;;;;12.15;10.95;;;614.80;2432.00;;;;;;6186571;23;20004;-81
2022/08/08 02:06:34;;;;;;;11.27;10.07;;;614.70;2432.00;;;;;;6172697;23;20083;-82
2022/08/08 02:09:09;;;;;;;11.80;10.32;;;614.50;2432.00;;;;;;6214151;23;19996;-83
2022/08/08 02:11:44;;;;;;;11.57;9.68;;;614.60;2432.00;;;;;;6202461;23;20013;-82
2022/08/08 02:14:26;;;;;;;10.95;9.45;;;614.80;2432.00;;;;;;6187758;23;20005;-81
2022/08/08 02:17:11;;;;;;;;;;;614.80;2432.00;;;;;;6187112;23;20001;-81
2022/08/08 02:19:51;;;;;;;15.90;10.32;;;614.80;2432.00;;;;;;6186109;23;19916;-82
2022/08/08 02:22:57;;;;;;;12.13;10.43;;;614.70;2432.00;;;;;;6186455;23;20312;-82
2022/08/08 02:25:48;;;;;;;11.90;10.70;;;589.70;2432.00;;;;;;6185972;23;20016;-83
2022/08/08 02:28:45;;;;;;;11.80;10.63;;;589.50;2432.00;;;;;;6186327;23;20059;-82
2022/08/08 02:31:20;;;;;;;14.15;10.35;;;589.60;2432.00;;;;;;6186447;23;20024;-84
2022/08/08 02:34:03;;;;;;;11.15;9.93;;;614.50;2432.00;;;;;;6186147;23;20005;-83
2022/08/08 02:37:14;;;;;;;14.95;10.80;;;614.60;2432.00;;;;;;6186387;23;20009;-82
2022/08/08 02:40:11;;;;;;;13.30;10.98;;;614.70;2432.00;;;;;;6140488;23;20012;-82
2022/08/08 02:42:42;;;;;;;11.48;10.38;;;614.50;2432.00;;;;;;6187557;23;20005;-82
2022/08/08 02:45:43;;;;;;;11.52;10.32;;;589.70;2432.00;;;;;;6186239;23;20008;-81
2022/08/08 02:48:39;;;;;;;12.23;10.93;;;589.70;2432.00;;;;;;6186303;23;20005;-81
2022/08/08 02:51:46;;;;;;;12.57;11.27;;;614.40;2432.00;;;;;;6186270;23;20005;-83
2022/08/08 02:54:18;;;;;;;12.27;11.05;;;589.70;2432.00;;;;;;6185701;23;20001;-83
2022/08/08 02:57:03;;;;;;;13.43;11.40;;;614.40;2432.00;;;;;;6186230;23;20059;-83
2022/08/08 03:00:14;;;;;;;15.27;12.07;;;589.60;2432.00;;;;;;6186263;23;20068;-83
2022/08/08 03:03:17;;;;;;;13.27;11.95;;;589.50;2432.00;;;;;;6071966;23;20089;-83
2022/08/08 03:05:55;;;;;;;13.63;11.82;;;589.50;2432.00;;;;;;6072313;23;20006;-82
2022/08/08 03:08:32;;;;;;;12.88;11.57;;;589.40;2432.00;;;;;;6167690;23;20008;-81
2022/08/08 03:11:04;;;;;;;13.75;12.35;;;589.40;2432.00;;;;;;6186101;23;20449;-81
2022/08/08 03:13:43;;;;;;;13.10;11.80;;;589.50;2432.00;;;;;;6185996;23;20083;-82
2022/08/08 03:16:30;;;;;;;18.98;12.43;;;589.60;2432.00;;;;;;6185914;23;20084;-81
2022/08/08 03:19:10;;;;;;;15.00;11.18;;;589.70;2432.00;;;;;;6160844;23;20044;-82
2022/08/08 03:21:36;;;;;;;14.30;11.85;;;614.40;2432.00;;;;;;6160686;23;20017;-83
2022/08/08 03:24:02;;;;;;;14.50;12.68;;;614.50;2432.00;;;;;;6185390;23;20027;-82
2022/08/08 03:26:34;;;;;;;13.30;11.93;;;589.60;2432.00;;;;;;6185254;23;20101;-81
2022/08/08 03:29:06;;;;;;;15.25;12.10;;;589.50;2432.00;;;;;;6185316;23;20008;-83
2022/08/08 03:34:21;;;;;;;13.38;11.98;;;614.40;2432.00;;;;;;6172599;23;19997;-81
2022/08/08 03:36:47;;;;;;;13.77;11.90;;;614.40;2432.00;;;;;;6185368;23;20087;-81
2022/08/08 03:39:13;;;;;;;12.55;11.10;;;614.50;2432.00;;;;;;6185548;23;20004;-82
2022/08/08 03:41:40;;;;;;;17.15;12.52;;;589.70;2432.00;;;;;;6184982;23;20001;-82
2022/08/08 03:44:06;;;;;;;19.48;13.73;;;589.70;2432.00;;;;;;6185783;23;20040;-81
2022/08/08 03:46:49;;;;;;;16.92;12.55;;;589.50;2432.00;;;;;;6185377;23;20323;-81
2022/08/08 03:49:19;;;;;;;;;;;589.20;2432.00;;;;;;6185954;23;20040;-81
2022/08/08 03:51:45;;;;;;;17.20;12.60;;;589.10;2432.00;;;;;;6185901;23;19901;-82
2022/08/08 03:54:11;;;;;;;16.25;12.77;;;589.00;2432.00;;;;;;6186991;23;20047;-81
2022/08/08 03:56:37;;;;;;;14.95;12.35;;;589.20;2432.00;;;;;;6207943;23;20009;-82
2022/08/08 03:59:03;;;;;;;14.98;13.40;;;589.10;2432.00;;;;;;6207504;23;20008;-80
2022/08/08 04:01:39;;;;;;;15.05;12.52;;;589.30;2432.00;;;;;;6195660;23;20008;-82
2022/08/08 04:04:06;;;;;;;15.57;12.98;;;589.50;2432.00;;;;;;6185259;23;20135;-82
2022/08/08 04:06:32;;;;;;;13.13;11.57;;;589.50;2432.00;;;;;;6185151;23;20031;-81
2022/08/08 04:09:00;;;;;;;13.57;11.95;;;614.40;2432.00;;;;;;6185223;23;20005;-82
2022/08/08 04:11:26;;;;;;;16.65;12.73;;;;;;;;;;6184898;23;20009;-81
2022/08/08 04:13:52;;;;;;;14.05;12.68;;;;;;;;;;6184959;23;20005;-83
2022/08/08 04:16:19;;;;;;;16.35;13.45;;;;;;;;;;6185567;23;20069;-81
2022/08/08 04:18:47;;;;;;;14.02;12.25;;;;;;;;;;6194785;23;20009;-82
2022/08/08 04:21:14;;;;;;;17.33;13.55;;;614.60;2432.00;;;;;;6189719;23;20001;-83
2022/08/08 04:23:40;;;;;;;13.70;12.30;;;614.40;2432.00;;;;;;6189849;23;20007;-81
2022/08/08 04:26:06;;;;;;;16.17;13.23;;;614.40;2432.00;;;;;;6189672;23;20008;-82
2022/08/08 04:28:33;;;;;;;15.68;14.05;;;614.40;2432.00;;;;;;6190750;23;20051;-81
2022/08/08 04:30:59;;;;;;;19.02;14.15;;;589.70;2432.00;;;;;;6190183;23;20426;-82
2022/08/08 04:33:24;;;;;;;15.57;13.95;;;589.50;2432.00;;;;;;6190050;23;20083;-81
2022/08/08 04:35:50;;;;;;;17.35;13.68;;;;;;;;;;6190224;23;20090;-82
2022/08/08 04:38:16;;;;;;;19.75;14.15;;;589.20;2432.00;;;;;;6189776;23;20005;-82
2022/08/08 04:40:42;;;;;;;20.50;15.15;;;589.30;2432.00;;;;;;6189865;23;20440;-82
2022/08/08 04:43:08;;;;;;;16.15;13.73;;;589.40;2432.00;;;;;;6190085;23;20005;-81
2022/08/08 04:45:34;;;;;;;16.77;13.18;;;589.20;2432.00;;;;;;6190099;23;20027;-82
2022/08/08 04:48:00;;;;;;;16.77;15.07;;;589.10;2432.00;;;;;;6190023;23;20410;-81
2022/08/08 04:50:27;;;;;;;19.55;14.38;;;589.10;2432.00;;;;;;6216604;23;20003;-82
2022/08/08 04:52:53;;;;;;;22.73;16.35;;;588.90;2432.00;;;;;;6190906;23;19997;-81
2022/08/08 04:55:19;;;;;;;15.00;13.48;;;588.90;2432.00;;;;;;6196966;23;20004;-80
2022/08/08 04:57:45;;;;;;;18.13;13.38;;;589.00;2432.00;;;;;;6195627;23;20084;-81
2022/08/08 05:00:12;;;;;;;15.13;13.73;;;589.30;2432.00;;;;;;6195146;23;20027;-82
2022/08/08 05:02:38;;;;;;;18.15;14.27;;;589.40;2432.00;;;;;;6198907;23;20000;-78
2022/08/08 05:05:04;;;;;;;16.83;14.35;;;589.60;2432.00;;;;;;6204949;23;20001;-77
2022/08/08 05:07:30;;;;;;;17.05;13.20;;;589.60;2432.00;;;;;;6204139;23;20005;-78
2022/08/08 05:09:56;;;;;;;21.48;14.30;;;589.60;2432.00;;;;;;6206399;23;20060;-76
2022/08/08 05:12:22;;;;;;;16.88;14.40;;;589.70;2432.00;;;;;;6190473;23;20039;-82
2022/08/08 05:14:48;;;;;;;16.02;13.50;;;;;;;;;;6190527;23;20001;-82
2022/08/08 05:17:14;;;;;;;16.45;14.63;;;;;;;;;;6190282;23;20083;-82
2022/08/08 05:19:41;;;;;;;15.25;13.77;;;;;;;;;;6189236;23;20016;-81
2022/08/08 05:22:08;;;;;;;17.27;14.02;;;;;;;;;;6189895;23;20004;-82
2022/08/08 05:24:35;;;;;;;17.40;14.10;;;;;;;;;;6190082;23;20364;-81
2022/08/08 05:27:01;;;;;;;14.80;13.23;;;;;;;;;;6190044;23;20008;-82
2022/08/08 05:29:27;;;;;;;14.45;12.75;;;;;;;;;;6189912;23;20017;-81
2022/08/08 05:31:54;;;;;;;15.77;14.18;;;;;;;;;;6189873;23;20055;-82
2022/08/08 05:34:40;;;;;;;17.52;13.65;;;;;;;;;;6189779;23;20005;-82
2022/08/08 05:37:07;;;;;;;16.05;13.38;;;;;;;;;;6189306;23;20096;-81
2022/08/08 05:39:34;;;;;;;16.42;13.55;;;;;;;;;;6190289;23;20059;-81
2022/08/08 05:42:00;;;;;;;15.05;13.45;;;;;;;;;;6189531;23;20424;-81
2022/08/08 05:44:29;;;;;;;15.02;13.50;;;;;;;;;;6216466;23;20421;-82
2022/08/08 05:46:57;;;;;;;16.85;13.02;;;640.20;2432.00;;;;;;6190012;23;20005;-83
2022/08/08 05:49:23;;;;;;;14.77;13.27;;;640.10;2432.00;;;;;;6189682;23;20120;-82
2022/08/08 05:51:49;;;;;;;17.27;13.80;;;640.40;2432.00;;;;;;6190550;23;20008;-83
2022/08/08 05:54:16;;;;;;;15.32;13.70;;;640.20;2432.00;;;;;;6191560;23;20050;-82
2022/08/08 05:56:43;;;;;;;17.08;13.52;;;666.40;2432.00;;;;;;6191553;23;20426;-82
2022/08/08 05:59:21;;;;;;;15.30;13.80;;;640.40;2432.00;;;;;;6191925;23;20373;-83
2022/08/08 06:01:57;;;;;;;16.90;13.88;;;640.40;2432.00;;;;;;6191968;23;20045;-82
2022/08/08 06:04:25;;;;;;;15.52;13.38;;;640.50;2432.00;;;;;;6191628;23;20008;-83
2022/08/08 06:06:55;;;;;;;14.05;12.65;;;640.60;2432.00;;;;;;6191728;23;20012;-82
2022/08/08 06:09:27;;;;;;;13.52;11.57;;;640.60;2432.00;;;;;;6191460;23;20010;-81
2022/08/08 06:11:59;;;;;;;14.20;12.40;;;640.70;2432.00;;;;;;6191731;23;20000;-81
2022/08/08 06:14:26;;;;;;;16.00;12.32;;;640.80;2432.00;;;;;;6190503;23;20004;-83
2022/08/08 06:16:59;;;;;;;16.60;11.23;;;640.90;2432.00;;;;;;6190631;23;20419;-82
2022/08/08 06:19:26;;;;;;;13.15;11.73;;;665.60;2432.00;;;;;;6191265;23;20027;-82
2022/08/08 06:21:52;;;;;;;13.77;11.50;;;665.60;2432.00;;;;;;6191174;23;20051;-82
2022/08/08 06:24:18;;;;;;;12.95;11.32;;;665.70;2432.00;;;;;;6191288;23;20414;-82
2022/08/08 06:27:02;;;;;;;17.77;10.85;;;665.70;2432.00;;;;;;6191326;23;20011;-83
2022/08/08 06:29:36;;;;;;;11.57;10.43;;;665.90;2432.00;;;;;;6191379;23;20084;-82
2022/08/08 06:32:03;;;;;;;11.77;10.57;;;666.00;2432.00;;;;;;6191362;23;20318;-82
2022/08/08 06:34:36;;;;;;;15.68;11.48;;;666.00;2432.00;;;;;;6191163;23;20000;-82
2022/08/08 06:37:03;;;;;;;13.38;11.27;;;666.20;2432.00;;;;;;6190974;23;20423;-82
2022/08/08 06:39:30;;;;;;;12.55;10.95;;;666.30;2432.00;;;;;;6191259;23;20418;-82
2022/08/08 06:41:58;;;;;;;12.70;10.27;;;666.30;2432.00;;;;;;6191387;23;20001;-83
2022/08/08 06:44:26;;;;;;;20.00;10.95;;;691.20;2432.00;;;;;;6191161;23;19997;-83
2022/08/08 06:46:52;;;;;;;11.52;10.40;;;691.30;2432.00;;;;;;6191268;23;20012;-81
2022/08/08 06:49:19;;;;;;;11.20;10.00;;;691.30;2432.00;;;;;;6191210;23;20063;-82
2022/08/08 06:51:44;;;;;;;12.43;11.23;;;691.40;2432.00;;;;;;6190756;23;20087;-81
2022/08/08 06:54:12;;;;;;;11.82;9.68;;;;;;;;;;6190992;23;20098;-82
2022/08/08 06:56:38;;;;;;;13.32;10.70;;;;;;;;;;6190873;23;20083;-83
2022/08/08 06:59:05;;;;;;;12.75;10.77;;;;;;;;;;6190745;23;20043;-82
2022/08/08 07:01:36;;;;;;;11.73;10.32;;;;;;;;;;6191023;23;20008;-81
2022/08/08 07:04:08;;;;;;;10.52;9.32;;;;;;;;;;6190756;23;20088;-82
2022/08/08 07:06:37;;;;;;;13.30;10.25;;;;;;;;;;6190738;23;20488;-81
2022/08/08 07:09:08;;;;;;;10.60;9.57;;;;;;;;;;6190714;23;20055;-83
2022/08/08 07:11:40;;;;;;;12.38;10.68;;;;;;;;;;6190929;23;20414;-81
2022/08/08 07:14:07;;;;;;;14.27;9.27;;;;;;;;;;6190969;23;20370;-81
2022/08/08 07:16:43;;;;;;;11.52;9.75;;;;;;;;;;6190748;23;20441;-81
2022/08/08 07:19:39;;;;;;;10.65;9.60;;;;;;;;;;6190020;23;20017;-82
2022/08/08 07:22:06;;;;;;;12.27;9.57;;;;;;;;;;6171858;23;20414;-83
2022/08/08 07:24:44;;;;;;;12.18;9.48;;;;;;;;;;6190920;23;20007;-82
2022/08/08 07:27:14;;;;;;;9.75;8.85;;;;;;;;;;6190629;23;20088;-82
2022/08/08 07:29:41;;;;;;;11.75;10.15;;;;;;;;;;6190678;23;20001;-83
2022/08/08 07:32:07;;;;;;;11.05;9.20;;;;;;;;;;6190783;23;20016;-82
2022/08/08 07:34:34;;;;;;;12.77;9.27;;;;;;;;;;6190515;23;20004;-82
2022/08/08 07:37:01;;;;;;;10.70;9.25;;;;;;;;;;6190450;23;20001;-79
2022/08/08 07:39:50;;;;;;;11.05;9.25;;;;;;;;;;6190442;23;20035;-84
2022/08/08 07:42:41;;;;;;;13.75;9.45;;;;;;;;;;6190488;23;20422;-83
2022/08/08 07:45:07;;;;;;;11.98;9.85;;;;;;;;;;6190464;23;20508;-83
2022/08/08 07:47:34;;;;;;;10.68;9.25;;;;;;;;;;6189914;23;20004;-82
2022/08/08 07:50:01;;;;;;;13.50;9.55;;;;;;;;;;6190617;23;20000;-81
2022/08/08 07:52:27;;;;;;;11.48;9.93;;;;;;;;;;6190225;23;20346;-83
2022/08/08 07:55:09;;;;;;;13.75;9.85;;;;;;;;;;6190342;23;20004;-80
2022/08/08 07:58:00;;;;;;;13.25;10.00;;;743.00;2432.00;;;;;;6190814;23;20080;-80
2022/08/08 08:00:48;;;;;;;14.55;10.57;;;743.10;2432.00;;;;;;6190681;23;20005;-81
2022/08/08 08:03:21;;;;;;;12.65;9.25;;;743.20;2432.00;;;;;;6190709;23;20088;-81
2022/08/08 08:05:50;;;;;;;11.98;10.30;;;743.20;2432.00;;;;;;6190127;23;20004;-79
2022/08/08 08:08:26;;;;;;;11.60;8.32;;;743.30;2432.00;;;;;;6189935;23;20087;-81
2022/08/08 08:10:56;;;;;;;10.85;8.88;;;768.20;2432.00;;;;;;6190856;23;20061;-81
2022/08/08 08:13:41;;;;;;;12.93;8.88;;;768.40;2432.00;;;;;;6200701;23;20011;-79
2022/08/08 08:16:10;;;;;;;10.55;9.15;;;768.60;2406.40;;;;;;6202576;23;20585;-79
2022/08/08 08:18:43;;;;;;;13.32;9.88;;;768.80;2406.40;;;;;;6194547;23;20024;-81
2022/08/08 08:21:10;;;;;;;13.80;10.05;;;768.90;2355.20;;;;;;6184996;23;20012;-80
2022/08/08 08:23:39;;;;;;;8.50;7.53;;;;;;;;;;6184682;23;20001;-81
2022/08/08 08:26:06;;;;;;;9.77;8.73;;;;;;;;;;6185109;23;20008;-81
2022/08/08 08:28:32;;;;;;;8.48;7.43;;;;;;;;;;6184961;23;20005;-82
2022/08/08 08:31:03;;;;;;;10.82;7.25;;;;;;;;;;6184802;23;20001;-82
2022/08/08 08:33:29;;;;;;;20.08;8.70;;;;;;;;;;6184976;23;20330;-80
2022/08/08 08:35:55;;;;;;;13.75;11.32;;;;;;;;;;6184651;23;20036;-79
2022/08/08 08:38:21;;;;;;;9.52;7.05;;;794.50;2252.80;;;;;;6186406;23;20004;-81
2022/08/08 08:40:48;;;;;;;10.10;7.53;;;794.50;2227.20;;;;;;6184788;23;20040;-81
2022/08/08 08:43:16;;;;;;;9.85;7.15;;;794.50;2227.20;;;;;;6184447;23;20008;-79
2022/08/08 08:45:43;;;;;;;12.70;6.82;;;794.30;2201.60;;;;;;6184193;23;20005;-78
2022/08/08 08:48:09;;;;;;;8.63;7.57;;;794.50;2201.60;;;;;;6184765;23;20013;-81
2022/08/08 08:50:37;;;;;;;10.43;8.32;;;794.40;2227.20;;;;;;6201697;23;19995;-80
2022/08/08 08:53:07;;;;;;;8.82;6.10;;;819.20;2176.00;;;;;;6212837;23;20016;-82
2022/08/08 08:55:34;;;;;;;8.73;6.47;;;;;;;;;;6196731;23;20012;-81
2022/08/08 08:58:02;;;;;;;9.73;6.60;;;819.80;2073.60;;;;;;6188335;23;20008;-83
2022/08/08 09:00:29;;;;;;;8.70;6.70;;;819.60;2048.00;;;;;;6189588;23;20498;-83
2022/08/08 09:02:59;;;;;;;11.00;6.15;;;819.80;2099.20;;;;;;6187829;23;20009;-80
2022/08/08 09:05:28;;;;;;;8.50;5.55;;;819.90;2073.60;;;;;;6186668;23;20012;-82
2022/08/08 09:08:02;;;;;;;10.77;6.93;;;820.10;2022.40;;;;;;6184866;23;20002;-81
2022/08/08 09:10:41;;;;;;;8.57;5.97;;;844.90;2048.00;;;;;;6186203;23;20005;-83
2022/08/08 09:13:11;;;;;;;7.60;6.00;;;844.80;2048.00;;;;;;6184640;23;20074;-84
2022/08/08 09:15:47;;;;;;;7.63;6.00;;;820.10;1996.80;;;;;;6185214;23;20227;-87
2022/08/08 09:18:25;;;;;;;7.68;5.90;;;819.80;1996.80;;;;;;6186938;23;20021;-87
2022/08/08 09:21:00;;;;;;;6.22;5.32;;;;;;;;;;6183961;23;20009;-86
2022/08/08 09:27:41;;;;;;;9.32;5.60;;;845.20;1971.20;;;;;;6218117;23;20019;-85
2022/08/08 09:30:13;;;;;;;6.65;5.38;;;;;;;;;;6191391;23;20011;-82
2022/08/08 09:32:48;;;;;;;9.55;6.22;;;;;;;;;;6218079;23;20066;-82
2022/08/08 09:35:27;;;;;;;8.48;5.53;;;;;;;;;;6192058;23;20032;-85
2022/08/08 09:38:28;;;;;;;16.98;5.68;;;870.50;1894.40;;;;;;6180681;23;20012;-84
2022/08/08 09:41:02;;;;;;;8.27;5.03;;;870.70;1843.20;;;;;;6201393;23;20060;-82
2022/08/08 09:43:32;;;;;;;7.45;5.53;;;870.70;1817.60;;;;;;6197141;23;20331;-81
2022/08/08 09:46:13;;;;;;;7.15;4.03;;;870.90;1766.40;;;;;;6197108;23;20019;-82
2022/08/08 09:48:58;;;;;;;7.97;4.35;;;871.00;1664.00;;;;;;6199529;23;20418;-83
2022/08/08 09:51:29;;;;;;;8.23;5.10;;;870.90;1689.60;;;;;;6200149;23;20051;-81
2022/08/08 09:57:23;;;;;;;6.90;3.88;;;871.30;1664.00;;;;;;6224341;23;20353;-80
2022/08/08 10:14:01;;;;;;;7.55;4.25;;;896.20;1587.20;;;;;;6098035;23;20026;-85
2022/08/08 10:17:36;;;;;;;;;;;;;;;;;;;;;
2022/08/08 10:23:33;;;;;;;6.43;4.38;;;896.40;1587.20;;;;;;6023393;23;20083;-83
2022/08/08 10:26:54;;;;;;;8.88;3.50;;;896.90;1587.20;;;;;;6130943;23;20028;-82
2022/08/08 10:29:57;;;;;;;7.95;3.60;;;922.10;1536.00;;;;;;6130208;23;20025;-84
2022/08/08 10:32:39;;;;;;;6.22;3.72;;;922.00;1561.60;;;;;;6131865;23;20016;-81
2022/08/08 10:35:13;;;;;;;8.13;3.85;;;;;;;;;;6159714;23;20005;-83
2022/08/08 10:37:48;;;;;;;8.55;3.25;;;;;;;;;;6160606;23;20001;-81
2022/08/08 10:40:15;;;;;;;8.48;3.58;;;;;;;;;;6136405;23;20437;-81
2022/08/08 10:42:41;;;;;;;6.78;3.80;;;;;;;;;;6160771;23;20001;-81
2022/08/08 10:45:09;;;;;;;5.70;4.03;;;922.50;1510.40;;;;;;6160524;23;20510;-80
2022/08/08 10:47:36;;;;;;;8.13;3.47;;;;;;;;;;6160871;23;20009;-80
2022/08/08 10:50:04;;;;;;;6.25;3.30;;;;;;;;;;6160518;23;20001;-81
2022/08/08 10:52:33;;;;;;;6.32;3.95;;;;;;;;;;6161104;23;20001;-79
2022/08/08 10:55:00;;;;;;;5.65;3.47;;;;;;;;;;6160976;23;20001;-80
2022/08/08 10:57:27;;;;;;;7.78;3.58;;;;;;;;;;6160630;23;20059;-82
2022/08/08 10:59:59;;;;;;;6.05;3.45;;;;;;;;;;6160472;23;20059;-79
2022/08/08 11:02:32;;;;;;;5.93;3.65;;;;;;;;;;6160363;23;20009;-78
2022/08/08 11:05:03;;;;;;;8.48;4.00;;;;;;;;;;6160471;23;20004;-79
2022/08/08 11:07:31;;;;;;;9.18;3.85;;;;;;;;;;6160892;23;20078;-79
2022/08/08 11:10:17;;;;;;;7.45;3.75;;;;;;;;;;6160757;23;20024;-79
2022/08/08 11:12:58;;;;;;;4.68;3.28;;;;;;;;;;6160678;23;20024;-79
2022/08/08 11:15:25;;;;;;;5.47;3.65;;;;;;;;;;6160603;23;20009;-79
2022/08/08 11:17:52;;;;;;;6.63;3.83;;;;;;;;;;6159683;23;20005;-78
2022/08/08 11:20:21;;;;;;;8.55;4.30;;;;;;;;;;6186851;23;20016;-79
2022/08/08 11:22:57;;;;;;;9.82;4.30;;;;;;;;;;6160427;23;20044;-81
2022/08/08 11:25:25;;;;;;;6.50;4.28;;;947.60;1433.60;;;;;;6158641;23;20016;-80
2022/08/08 11:27:55;;;;;;;8.85;4.10;;;947.70;1408.00;;;;;;6160662;23;20055;-80
2022/08/08 11:30:23;;;;;;;8.88;3.60;;;922.50;1408.00;;;;;;6160852;23;20712;-80
2022/08/08 11:32:52;;;;;;;8.55;4.45;;;922.50;1433.60;;;;;;6160174;23;20005;-81
2022/08/08 11:35:20;;;;;;;13.23;6.00;;;947.60;1433.60;;;;;;6160214;23;20615;-77
2022/08/08 11:37:46;;;;;;;8.18;4.90;;;948.00;1459.20;;;;;;6160119;23;20064;-81
2022/08/08 11:40:13;;;;;;;9.20;4.05;;;973.10;1484.80;;;;;;6160422;23;20001;-80
2022/08/08 11:42:41;;;;;;;8.95;3.63;;;972.90;1408.00;;;;;;6160370;23;20001;-77
2022/08/08 11:45:09;;;;;;;8.73;3.70;;;948.00;1408.00;;;;;;6159849;23;20009;-78
2022/08/08 11:47:36;;;;;;;6.45;4.13;;;973.10;1408.00;;;;;;6160275;23;20011;-78
2022/08/08 11:50:07;;;;;;;7.38;4.18;;;973.00;1408.00;;;;;;6159759;23;20005;-79
2022/08/08 11:52:35;;;;;;;7.50;5.03;;;948.00;1382.40;;;;;;6186379;23;20047;-78
2022/08/08 11:55:16;;;;;;;8.65;6.05;;;947.80;1356.80;;;;;;6160216;23;20002;-79
2022/08/08 11:57:41;;;;;;;6.30;3.73;;;948.10;1382.40;;;;;;6186858;23;20072;-81
2022/08/08 12:00:14;;;;;;;7.32;4.10;;;972.80;1433.60;;;;;;6160331;23;20040;-82
2022/08/08 12:02:48;;;;;;;5.28;3.28;;;948.00;1433.60;;;;;;6160578;23;20001;-81
2022/08/08 12:05:15;;;;;;;6.82;3.53;;;973.10;1433.60;;;;;;6159821;23;20444;-79
2022/08/08 12:07:48;;;;;;;8.55;3.70;;;972.80;1433.60;;;;;;6159846;23;20300;-81
2022/08/08 12:10:15;;;;;;;4.43;3.50;;;948.00;1408.00;;;;;;6160199;23;20032;-80
2022/08/08 12:12:46;;;;;;;6.40;4.38;;;947.40;1433.60;;;;;;6159832;23;20001;-79
2022/08/08 12:15:23;;;;;;;7.85;4.05;;;947.20;1459.20;;;;;;6160383;23;20009;-81
2022/08/08 12:17:49;;;;;;;7.22;3.80;;;922.30;1433.60;;;;;;6160300;23;20088;-80
2022/08/08 12:20:15;;;;;;;4.72;3.30;;;922.40;1433.60;;;;;;6159972;23;20029;-79
2022/08/08 12:22:52;;;;;;;4.43;3.47;;;922.40;1433.60;;;;;;6160363;23;19997;-80
2022/08/08 12:25:26;;;;;;;8.15;3.45;;;947.30;1433.60;;;;;;6160022;23;20159;-80
2022/08/08 12:28:13;;;;;;;5.80;3.50;;;947.60;1408.00;;;;;;6159384;23;20016;-82
2022/08/08 12:30:40;;;;;;;5.75;3.50;;;948.10;1459.20;;;;;;6160050;23;20083;-80
2022/08/08 12:33:18;;;;;;;5.22;3.35;;;973.10;1408.00;;;;;;6160274;23;20012;-77
2022/08/08 12:35:44;;;;;;;5.22;2.97;;;973.30;1408.00;;;;;;6186278;23;20322;-79
2022/08/08 12:38:11;;;;;;;6.20;3.15;;;973.40;1382.40;;;;;;6186068;23;20430;-81
2022/08/08 12:40:40;;;;;;;7.40;3.53;;;973.30;1356.80;;;;;;6159348;23;20005;-80
2022/08/08 12:43:06;;;;;;;6.45;2.92;;;973.30;1382.40;;;;;;6159837;23;20004;-78
2022/08/08 12:45:39;;;;;;;7.60;3.15;;;973.20;1356.80;;;;;;6159692;23;20429;-80
2022/08/08 12:48:17;;;;;;;5.72;3.40;;;973.40;1382.40;;;;;;6158519;23;20009;-81
2022/08/08 12:50:48;;;;;;;6.43;3.42;;;973.70;1356.80;;;;;;6159972;23;20083;-79
2022/08/08 12:53:26;;;;;;;5.47;3.33;;;973.60;1331.20;;;;;;6185969;23;20438;-78
2022/08/08 12:55:57;;;;;;;7.70;3.35;;;973.70;1382.40;;;;;;6163025;23;20005;-79
2022/08/08 12:58:24;;;;;;;5.78;2.85;;;973.30;1331.20;;;;;;6186201;23;20005;-79
2022/08/08 13:00:50;;;;;;;9.80;6.05;;;973.20;1331.20;;;;;;6188057;23;20057;-80
2022/08/08 13:03:26;;;;;;;8.02;3.92;;;973.60;1356.80;;;;;;6185835;23;20022;-80
2022/08/08 13:06:03;;;;;;;7.28;3.65;;;998.40;1331.20;;;;;;6178391;23;20148;-79
2022/08/08 13:08:41;;;;;;;5.82;4.07;;;998.80;1382.40;;;;;;6160408;23;20431;-79
2022/08/08 13:11:19;;;;;;;10.07;3.90;;;998.50;1356.80;;;;;;6159871;23;20005;-82
2022/08/08 13:14:14;;;;;;;8.73;4.40;;;973.30;1331.20;;;;;;6159759;23;20001;-80
2022/08/08 13:16:40;;;;;;;6.15;4.18;;;973.00;1356.80;;;;;;6159769;23;20009;-81
2022/08/08 13:19:07;;;;;;;5.57;3.05;;;948.10;1356.80;;;;;;6159683;23;20064;-80
2022/08/08 13:21:41;;;;;;;5.00;3.63;;;947.80;1356.80;;;;;;6159759;23;20005;-81
2022/08/08 13:24:07;;;;;;;6.63;3.47;;;947.40;1382.40;;;;;;6159295;23;20091;-80
2022/08/08 13:26:33;;;;;;;6.28;3.58;;;947.40;1382.40;;;;;;6159739;23;20008;-79
2022/08/08 13:29:07;;;;;;;5.82;3.38;;;948.00;1356.80;;;;;;6159739;23;20052;-79
2022/08/08 13:31:33;;;;;;;9.65;3.38;;;973.10;1382.40;;;;;;6159456;23;20028;-80
2022/08/08 13:33:59;;;;;;;8.18;3.72;;;973.40;1356.80;;;;;;6159587;23;20048;-78
2022/08/08 13:36:24;;;;;;;5.53;3.53;;;998.40;1382.40;;;;;;6159575;23;20005;-79
2022/08/08 13:38:50;;;;;;;4.90;3.58;;;998.60;1382.40;;;;;;6159408;23;20001;-79
2022/08/08 13:41:16;;;;;;;4.80;3.47;;;998.80;1356.80;;;;;;6159537;23;20020;-80
2022/08/08 13:43:44;;;;;;;6.00;3.33;;;998.90;1331.20;;;;;;6185482;23;19994;-79